Time;durP1;ratioP1;P1;durP2;ratioP2;P2;SDS_P1;SDS_P2;PMS_P1;PMS_P2;Temp;Humidity;BMP_temperature;BMP_pressure;BME280_temperature;BME280_humidity;BME280_pressure;Samples;Min_cycle;Max_cycle;Signal;HPM_P1;HPM_P2
2022/09/05 00:02:13;;;;;;;1.88;0.70;;;19.10;66.60;;;;;;5060796;28;20106;-78
2022/09/05 00:05:16;;;;;;;2.08;0.80;;;19.10;66.70;;;;;;5052277;28;20056;-78
2022/09/05 00:08:18;;;;;;;1.80;0.60;;;19.10;66.80;;;;;;5065423;28;20075;-78
2022/09/05 00:11:01;;;;;;;2.78;0.70;;;19.00;66.80;;;;;;5049666;28;20489;-78
2022/09/05 00:14:16;;;;;;;1.40;0.70;;;19.00;66.90;;;;;;5053282;28;20037;-78
2022/09/05 00:17:34;;;;;;;1.83;0.70;;;19.00;67.00;;;;;;5064956;28;20095;-79
2022/09/05 00:20:49;;;;;;;1.13;0.50;;;19.00;67.10;;;;;;5062867;28;20064;-78
2022/09/05 00:23:51;;;;;;;1.38;0.73;;;19.00;67.30;;;;;;5062064;28;20044;-78
2022/09/05 00:27:00;;;;;;;1.10;0.73;;;19.00;67.30;;;;;;5060824;28;20121;-78
2022/09/05 00:29:38;;;;;;;1.65;0.70;;;19.00;67.40;;;;;;5047402;28;20639;-78
2022/09/05 00:32:36;;;;;;;2.65;0.90;;;18.90;67.40;;;;;;5061689;28;20029;-78
2022/09/05 00:35:06;;;;;;;2.05;0.70;;;18.90;67.50;;;;;;5060927;28;20838;-78
2022/09/05 00:37:44;;;;;;;1.70;0.77;;;18.90;67.70;;;;;;5075178;28;20082;-77
2022/09/05 00:40:36;;;;;;;1.75;0.85;;;18.90;67.80;;;;;;5043832;28;20050;-78
2022/09/05 00:43:10;;;;;;;1.27;0.50;;;18.90;67.80;;;;;;5060135;28;20505;-78
2022/09/05 00:45:44;;;;;;;1.02;0.50;;;18.80;68.00;;;;;;5055779;28;20059;-78
2022/09/05 00:48:21;;;;;;;1.58;0.65;;;18.80;68.20;;;;;;5057406;28;20213;-78
2022/09/05 00:51:07;;;;;;;1.98;0.50;;;18.80;68.30;;;;;;5057736;28;20056;-78
2022/09/05 00:53:40;;;;;;;1.73;0.60;;;18.80;68.40;;;;;;5058064;28;20048;-78
2022/09/05 00:56:52;;;;;;;1.80;0.80;;;18.70;68.50;;;;;;5060818;28;20037;-78
2022/09/05 00:59:49;;;;;;;1.33;0.70;;;18.70;68.50;;;;;;5059403;28;20093;-78
2022/09/05 01:02:39;;;;;;;1.25;0.80;;;18.70;68.70;;;;;;5060314;28;20056;-79
2022/09/05 01:05:55;;;;;;;1.60;0.70;;;18.60;68.80;;;;;;5055933;28;20075;-79
2022/09/05 01:08:41;;;;;;;1.90;0.73;;;18.60;68.80;;;;;;5069944;28;20101;-79
2022/09/05 01:11:34;;;;;;;1.52;0.80;;;18.50;68.90;;;;;;5080266;28;20033;-79
2022/09/05 01:14:34;;;;;;;2.67;0.80;;;18.50;68.90;;;;;;5070736;28;20116;-79
2022/09/05 01:17:31;;;;;;;1.42;0.70;;;18.50;69.00;;;;;;5060937;28;20099;-79
2022/09/05 01:20:16;;;;;;;1.38;0.70;;;18.50;69.20;;;;;;5089652;28;20491;-79
2022/09/05 01:23:04;;;;;;;1.13;0.60;;;18.40;69.20;;;;;;5064477;28;20462;-79
2022/09/05 01:25:49;;;;;;;1.08;0.55;;;18.40;69.20;;;;;;5048748;28;20048;-79
2022/09/05 01:28:30;;;;;;;1.55;0.73;;;18.40;69.30;;;;;;5048699;28;20133;-80
2022/09/05 01:31:33;;;;;;;1.50;0.55;;;18.40;69.40;;;;;;5045560;28;20144;-80
2022/09/05 01:34:11;;;;;;;1.67;0.77;;;18.40;69.50;;;;;;5080566;28;20037;-79
2022/09/05 01:36:42;;;;;;;1.77;0.80;;;18.30;69.60;;;;;;5066276;28;20032;-80
2022/09/05 01:39:43;;;;;;;1.67;0.73;;;18.30;69.70;;;;;;5060759;28;20047;-80
2022/09/05 01:42:50;;;;;;;1.35;0.70;;;18.30;70.40;;;;;;5060412;28;20032;-80
2022/09/05 01:45:29;;;;;;;1.77;0.80;;;18.30;70.00;;;;;;5049975;28;20048;-79
2022/09/05 01:48:33;;;;;;;2.13;0.90;;;18.30;70.10;;;;;;5045479;28;20159;-79
2022/09/05 01:51:22;;;;;;;2.67;1.00;;;18.30;70.80;;;;;;5062312;28;20048;-79
2022/09/05 01:54:37;;;;;;;1.33;0.70;;;18.30;70.30;;;;;;5045695;28;20044;-79
2022/09/05 01:57:40;;;;;;;2.83;0.98;;;18.20;70.30;;;;;;5038729;28;20044;-79
2022/09/05 02:00:10;;;;;;;;;;;18.20;70.40;;;;;;4985892;28;20232;-78
2022/09/05 02:03:07;;;;;;;2.35;0.70;;;18.10;70.30;;;;;;5081419;28;19978;-78
2022/09/05 02:05:52;;;;;;;1.92;1.00;;;18.10;70.50;;;;;;5061690;28;20393;-78
2022/09/05 02:08:53;;;;;;;3.65;0.95;;;18.10;70.60;;;;;;5082099;28;20043;-78
2022/09/05 02:11:40;;;;;;;2.10;1.17;;;18.20;70.70;;;;;;5058678;28;20127;-78
2022/09/05 02:14:34;;;;;;;3.55;1.20;;;18.10;70.70;;;;;;5051580;28;20045;-78
2022/09/05 02:17:39;;;;;;;2.30;1.20;;;18.10;70.80;;;;;;5077320;28;20056;-78
2022/09/05 02:20:30;;;;;;;2.55;1.05;;;18.10;70.90;;;;;;5031614;28;20063;-78
2022/09/05 02:23:16;;;;;;;2.13;0.90;;;18.10;71.00;;;;;;5066191;28;20055;-78
2022/09/05 02:26:33;;;;;;;2.20;1.10;;;18.10;71.10;;;;;;5058416;28;20055;-78
2022/09/05 02:29:15;;;;;;;1.45;0.77;;;18.10;71.20;;;;;;5058289;28;20067;-78
2022/09/05 02:32:29;;;;;;;1.65;1.08;;;18.00;71.40;;;;;;5040097;28;20036;-78
2022/09/05 02:35:18;;;;;;;2.05;1.33;;;18.00;71.40;;;;;;5036934;28;20497;-78
2022/09/05 02:37:58;;;;;;;2.83;1.02;;;18.00;71.50;;;;;;5060794;28;20040;-78
2022/09/05 02:40:55;;;;;;;2.17;1.25;;;18.00;71.60;;;;;;5061014;28;20071;-78
2022/09/05 02:44:02;;;;;;;3.25;1.25;;;18.00;71.70;;;;;;5068772;28;20048;-78
2022/09/05 02:47:08;;;;;;;2.13;1.38;;;18.00;71.70;;;;;;5066985;28;20040;-78
2022/09/05 02:50:14;;;;;;;2.00;1.15;;;18.00;71.80;;;;;;5060228;28;20055;-78
2022/09/05 02:53:03;;;;;;;1.85;0.90;;;17.90;71.80;;;;;;5028285;28;20142;-78
2022/09/05 02:56:22;;;;;;;2.92;1.23;;;17.90;72.00;;;;;;5062457;28;20037;-78
2022/09/05 02:59:26;;;;;;;2.58;1.20;;;17.90;72.00;;;;;;5057710;28;20042;-78
2022/09/05 03:02:15;;;;;;;2.05;1.23;;;17.90;72.10;;;;;;5042653;28;20045;-78
2022/09/05 03:05:15;;;;;;;2.38;1.40;;;17.90;72.30;;;;;;5065099;28;20085;-78
2022/09/05 03:08:03;;;;;;;3.08;1.35;;;17.80;72.30;;;;;;5071081;28;20068;-78
2022/09/05 03:11:05;;;;;;;2.67;1.45;;;17.80;72.40;;;;;;5062019;28;20082;-78
2022/09/05 03:13:50;;;;;;;3.60;1.67;;;17.80;72.50;;;;;;5014245;28;20037;-78
2022/09/05 03:16:58;;;;;;;2.65;1.70;;;17.80;72.60;;;;;;5055231;28;20068;-78
2022/09/05 03:19:31;;;;;;;2.97;1.65;;;17.80;72.80;;;;;;5058566;28;20576;-78
2022/09/05 03:22:28;;;;;;;1.83;1.08;;;17.70;72.80;;;;;;5043880;28;20143;-78
2022/09/05 03:25:29;;;;;;;2.22;1.35;;;17.70;72.90;;;;;;5042608;28;20075;-78
2022/09/05 03:28:14;;;;;;;2.75;1.52;;;17.70;72.90;;;;;;5062250;28;20088;-78
2022/09/05 03:31:04;;;;;;;3.17;1.75;;;17.70;72.90;;;;;;5043632;28;20136;-78
2022/09/05 03:33:59;;;;;;;2.38;1.55;;;17.70;73.60;;;;;;5073321;28;20033;-78
2022/09/05 03:36:58;;;;;;;3.08;1.55;;;17.70;73.10;;;;;;5042739;28;20522;-78
2022/09/05 03:39:44;;;;;;;2.95;1.70;;;17.60;73.20;;;;;;5051194;28;20127;-78
2022/09/05 03:42:26;;;;;;;3.38;1.90;;;17.60;73.40;;;;;;5060426;28;20036;-78
2022/09/05 03:45:15;;;;;;;2.92;2.00;;;17.60;73.40;;;;;;5060016;28;20048;-78
2022/09/05 03:48:22;;;;;;;3.80;1.90;;;17.60;73.40;;;;;;5064852;28;20131;-78
2022/09/05 03:51:09;;;;;;;4.03;1.98;;;17.60;73.60;;;;;;5052286;28;20040;-78
2022/09/05 03:54:44;;;;;;;3.58;1.92;;;17.50;73.60;;;;;;5058065;28;20041;-78
2022/09/05 03:58:20;;;;;;;3.30;1.83;;;17.50;73.60;;;;;;5066532;28;20091;-78
2022/09/05 04:01:16;;;;;;;3.15;1.60;;;17.50;73.80;;;;;;4995291;28;20499;-77
2022/09/05 04:04:11;;;;;;;2.83;1.67;;;17.40;73.90;;;;;;5068349;28;20043;-78
2022/09/05 04:07:10;;;;;;;5.30;2.42;;;17.40;74.00;;;;;;5081604;28;20042;-78
2022/09/05 04:10:06;;;;;;;2.50;1.65;;;17.40;74.10;;;;;;5048639;28;20036;-78
2022/09/05 04:12:42;;;;;;;2.72;1.63;;;17.40;74.30;;;;;;5059058;28;20074;-77
2022/09/05 04:15:31;;;;;;;3.25;1.73;;;17.40;74.20;;;;;;5065404;28;20043;-78
2022/09/05 04:18:02;;;;;;;3.50;2.20;;;17.40;74.30;;;;;;5073287;28;20071;-78
2022/09/05 04:20:54;;;;;;;2.72;1.77;;;17.30;74.30;;;;;;5073655;28;20086;-78
2022/09/05 04:23:27;;;;;;;4.85;1.92;;;17.30;74.30;;;;;;5049835;28;20390;-78
2022/09/05 04:26:10;;;;;;;3.25;2.00;;;17.30;74.50;;;;;;5061480;28;20044;-78
2022/09/05 04:29:14;;;;;;;3.30;1.88;;;17.30;74.50;;;;;;5061278;28;20055;-78
2022/09/05 04:31:55;;;;;;;4.25;2.15;;;17.30;74.60;;;;;;5062165;28;21388;-78
2022/09/05 04:34:51;;;;;;;3.47;2.28;;;17.20;74.80;;;;;;5061565;28;20055;-78
2022/09/05 04:37:33;;;;;;;3.85;2.25;;;17.20;74.80;;;;;;5080174;28;20097;-78
2022/09/05 04:40:33;;;;;;;3.42;2.00;;;17.20;74.80;;;;;;5055304;28;20500;-78
2022/09/05 04:43:22;;;;;;;4.05;1.95;;;17.20;74.80;;;;;;5056808;28;20083;-78
2022/09/05 04:45:59;;;;;;;5.07;2.38;;;17.20;75.50;;;;;;5046498;28;20049;-78
2022/09/05 04:48:35;;;;;;;4.35;2.55;;;17.10;75.00;;;;;;5066764;28;20052;-80
2022/09/05 04:51:32;;;;;;;5.25;2.58;;;17.10;75.10;;;;;;5055285;28;20481;-80
2022/09/05 04:54:04;;;;;;;4.32;2.17;;;17.10;75.20;;;;;;5053208;28;20135;-79
2022/09/05 04:56:39;;;;;;;4.70;2.35;;;17.00;75.30;;;;;;5061014;28;20102;-79
2022/09/05 04:59:30;;;;;;;4.35;2.25;;;17.00;75.30;;;;;;5056650;28;20040;-78
2022/09/05 05:02:25;;;;;;;6.57;2.60;;;17.00;75.30;;;;;;5065054;28;20136;-80
2022/09/05 05:05:22;;;;;;;5.20;2.38;;;17.00;75.50;;;;;;5080005;28;20555;-76
2022/09/05 05:08:21;;;;;;;4.68;2.22;;;17.00;75.50;;;;;;5057654;28;20037;-76
2022/09/05 05:11:17;;;;;;;3.58;2.45;;;17.00;75.50;;;;;;5062855;28;20181;-77
2022/09/05 05:14:14;;;;;;;3.13;2.20;;;17.00;76.20;;;;;;5084477;28;20512;-82
2022/09/05 05:17:22;;;;;;;3.75;2.30;;;17.00;75.60;;;;;;5064546;28;20048;-80
2022/09/05 05:20:24;;;;;;;4.43;2.05;;;17.10;75.60;;;;;;5058072;28;20056;-79
2022/09/05 05:23:15;;;;;;;4.22;1.90;;;17.00;75.60;;;;;;5059683;28;20079;-78
2022/09/05 05:25:45;;;;;;;3.22;2.25;;;17.00;75.60;;;;;;5065414;28;20090;-79
2022/09/05 05:28:35;;;;;;;3.42;2.08;;;17.00;75.60;;;;;;5064879;28;20044;-78
2022/09/05 05:31:12;;;;;;;4.00;2.00;;;17.00;75.60;;;;;;5047379;28;20048;-79
2022/09/05 05:33:43;;;;;;;4.35;2.40;;;17.10;75.60;;;;;;5072396;28;20070;-79
2022/09/05 05:36:23;;;;;;;3.13;2.08;;;17.10;75.60;;;;;;5053727;28;20040;-76
2022/09/05 05:39:05;;;;;;;4.00;2.42;;;17.10;75.70;;;;;;5055545;28;20513;-75
2022/09/05 05:41:47;;;;;;;5.95;1.98;;;17.10;75.70;;;;;;5041289;28;20055;-80
2022/09/05 05:44:18;;;;;;;3.33;2.00;;;17.10;75.70;;;;;;5050097;28;20113;-80
2022/09/05 05:47:21;;;;;;;3.10;1.90;;;17.20;75.70;;;;;;5038750;28;20044;-80
2022/09/05 05:50:09;;;;;;;5.22;2.20;;;17.30;75.60;;;;;;5044779;28;20048;-80
2022/09/05 05:52:58;;;;;;;3.70;2.38;;;17.30;75.70;;;;;;5063409;28;20075;-80
2022/09/05 05:55:41;;;;;;;4.90;2.38;;;17.30;75.60;;;;;;5069874;28;20134;-79
2022/09/05 05:58:35;;;;;;;5.53;2.58;;;17.40;75.60;;;;;;5059824;28;20041;-79
2022/09/05 06:01:33;;;;;;;4.32;2.83;;;17.50;75.60;;;;;;5066885;28;20052;-80
2022/09/05 06:04:38;;;;;;;5.33;2.80;;;17.60;75.50;;;;;;5068552;28;20047;-79
2022/09/05 06:07:36;;;;;;;4.68;2.80;;;17.70;75.30;;;;;;5079165;28;20306;-80
2022/09/05 06:10:52;;;;;;;5.28;3.20;;;17.90;75.00;;;;;;5066238;28;20101;-80
2022/09/05 06:13:57;;;;;;;5.38;2.47;;;18.00;74.80;;;;;;5047164;28;20131;-80
2022/09/05 06:17:18;;;;;;;4.47;2.50;;;18.20;74.40;;;;;;5044286;28;20140;-80
2022/09/05 06:20:15;;;;;;;5.13;2.83;;;18.40;74.20;;;;;;5066515;28;20059;-80
2022/09/05 06:23:39;;;;;;;4.53;3.08;;;18.50;74.00;;;;;;5053491;28;20506;-80
2022/09/05 06:26:40;;;;;;;5.57;3.58;;;18.80;73.70;;;;;;5060387;28;20069;-80
2022/09/05 06:29:25;;;;;;;5.68;3.33;;;18.90;73.60;;;;;;5051138;28;20047;-80
2022/09/05 06:32:25;;;;;;;6.03;3.70;;;19.10;73.40;;;;;;5062254;28;20078;-80
2022/09/05 06:35:23;;;;;;;4.57;3.10;;;19.20;73.20;;;;;;5051624;28;20048;-80
2022/09/05 06:38:15;;;;;;;4.72;3.33;;;19.30;72.90;;;;;;5056526;28;20044;-79
2022/09/05 06:40:51;;;;;;;5.68;3.58;;;19.50;72.80;;;;;;5063676;28;20052;-80
2022/09/05 06:43:33;;;;;;;4.53;3.22;;;19.60;72.70;;;;;;5059971;28;20056;-79
2022/09/05 06:46:29;;;;;;;4.47;2.92;;;19.70;72.60;;;;;;5064829;28;20479;-80
2022/09/05 06:49:37;;;;;;;4.45;2.80;;;19.80;72.50;;;;;;5069561;28;20128;-80
2022/09/05 06:52:23;;;;;;;3.88;2.55;;;19.90;72.30;;;;;;5059328;28;20045;-80
2022/09/05 06:54:58;;;;;;;4.88;3.40;;;20.00;72.10;;;;;;5065225;28;20089;-81
2022/09/05 06:58:00;;;;;;;4.85;3.25;;;20.10;72.00;;;;;;5043389;28;20523;-80
2022/09/05 07:00:47;;;;;;;5.40;3.70;;;20.20;71.80;;;;;;5087025;28;20100;-80
2022/09/05 07:03:23;;;;;;;5.65;3.17;;;20.30;71.70;;;;;;5074589;28;20043;-80
2022/09/05 07:06:15;;;;;;;4.07;2.88;;;20.40;71.60;;;;;;5042377;28;20040;-80
2022/09/05 07:08:52;;;;;;;3.80;2.60;;;20.50;71.40;;;;;;5043467;28;20115;-79
2022/09/05 07:11:24;;;;;;;4.90;3.10;;;20.60;71.40;;;;;;5056872;28;20143;-80
2022/09/05 07:14:12;;;;;;;4.07;2.88;;;20.70;71.20;;;;;;5060175;28;20072;-79
2022/09/05 07:16:46;;;;;;;4.82;2.88;;;20.90;71.00;;;;;;5069862;28;20048;-80
2022/09/05 07:19:36;;;;;;;4.53;3.10;;;20.90;71.00;;;;;;5058105;28;20121;-79
2022/09/05 07:22:28;;;;;;;4.35;2.25;;;21.00;70.80;;;;;;5054772;28;20047;-80
2022/09/05 07:25:27;;;;;;;3.75;2.40;;;21.10;70.70;;;;;;5074853;28;20124;-79
2022/09/05 07:28:09;;;;;;;4.47;2.33;;;21.30;70.50;;;;;;5063427;28;20044;-80
2022/09/05 07:31:05;;;;;;;4.53;2.78;;;21.40;71.00;;;;;;5081348;28;20075;-80
2022/09/05 07:33:38;;;;;;;5.38;3.05;;;21.50;70.30;;;;;;5058220;28;20060;-80
2022/09/05 07:36:10;;;;;;;3.75;2.80;;;21.50;70.10;;;;;;5067152;28;20093;-80
2022/09/05 07:38:38;;;;;;;3.30;2.30;;;21.60;70.10;;;;;;5064780;28;20032;-80
2022/09/05 07:41:30;;;;;;;4.15;2.28;;;21.70;70.00;;;;;;5030691;28;20040;-80
2022/09/05 07:44:05;;;;;;;4.07;2.10;;;21.80;69.80;;;;;;5076624;28;20083;-80
2022/09/05 07:46:38;;;;;;;4.32;2.25;;;21.80;69.60;;;;;;5079744;28;20044;-80
2022/09/05 07:49:19;;;;;;;3.63;2.33;;;21.90;69.50;;;;;;5059578;28;20044;-80
2022/09/05 07:51:54;;;;;;;3.47;2.10;;;22.10;69.50;;;;;;5070594;28;20090;-80
2022/09/05 07:54:44;;;;;;;4.03;2.55;;;22.10;69.30;;;;;;5074801;28;20068;-80
2022/09/05 07:57:40;;;;;;;4.03;1.95;;;22.20;69.10;;;;;;5062004;28;20040;-80
2022/09/05 08:00:22;;;;;;;3.92;1.92;;;22.30;69.60;;;;;;5072138;28;20135;-80
2022/09/05 08:02:59;;;;;;;3.50;2.33;;;22.40;68.80;;;;;;5073813;28;20118;-80
2022/09/05 08:05:43;;;;;;;4.03;2.15;;;22.50;68.60;;;;;;5061938;28;20135;-80
2022/09/05 08:08:18;;;;;;;3.70;2.10;;;22.60;68.40;;;;;;5066218;28;20036;-80
2022/09/05 08:10:50;;;;;;;3.03;1.77;;;22.70;68.30;;;;;;5071305;28;20431;-80
2022/09/05 08:13:41;;;;;;;4.30;2.50;;;22.80;68.20;;;;;;5056942;28;20610;-80
2022/09/05 08:16:17;;;;;;;2.92;1.80;;;22.80;68.10;;;;;;5061346;28;20118;-80
2022/09/05 08:18:51;;;;;;;3.05;2.08;;;22.90;68.00;;;;;;5060210;28;20602;-79
2022/09/05 08:21:45;;;;;;;3.42;2.30;;;22.90;67.80;;;;;;5061574;28;20040;-80
2022/09/05 08:24:31;;;;;;;3.83;1.98;;;23.10;67.50;;;;;;5064524;28;20098;-80
2022/09/05 08:26:58;;;;;;;3.38;2.17;;;23.10;67.40;;;;;;5064340;28;20484;-79
2022/09/05 08:29:29;;;;;;;3.00;1.50;;;23.20;67.30;;;;;;5082119;28;20492;-80
2022/09/05 08:32:07;;;;;;;3.70;2.40;;;23.30;67.10;;;;;;5070114;28;20055;-80
2022/09/05 08:34:54;;;;;;;3.60;2.33;;;23.40;66.90;;;;;;5072759;28;20399;-80
2022/09/05 08:37:25;;;;;;;4.00;2.17;;;23.50;66.70;;;;;;5069196;28;20048;-80
2022/09/05 08:39:56;;;;;;;4.18;2.45;;;23.60;66.60;;;;;;5057658;28;20121;-80
2022/09/05 08:42:42;;;;;;;5.45;2.25;;;23.60;66.30;;;;;;5086142;28;20485;-80
2022/09/05 08:45:35;;;;;;;3.87;2.27;;;23.70;66.20;;;;;;5048308;28;20039;-80
2022/09/05 08:48:32;;;;;;;3.47;2.03;;;23.80;65.90;;;;;;5076805;28;20296;-81
2022/09/05 08:51:14;;;;;;;3.08;1.98;;;23.90;65.70;;;;;;5040821;28;20051;-81
2022/09/05 08:54:05;;;;;;;2.88;1.90;;;24.00;65.50;;;;;;5075306;28;20507;-81
2022/09/05 08:56:44;;;;;;;2.60;1.20;;;24.10;65.40;;;;;;5039756;28;20055;-81
2022/09/05 08:59:39;;;;;;;2.72;1.13;;;24.20;65.10;;;;;;5058461;28;20105;-81
2022/09/05 09:02:44;;;;;;;2.38;1.58;;;24.30;64.90;;;;;;5060582;28;20107;-81
2022/09/05 09:05:20;;;;;;;2.25;1.40;;;24.40;64.70;;;;;;5082656;28;20045;-81
2022/09/05 09:08:07;;;;;;;3.08;1.23;;;24.50;64.60;;;;;;5061920;28;20044;-81
2022/09/05 09:10:43;;;;;;;2.42;1.13;;;24.60;64.30;;;;;;5071227;28;20400;-81
2022/09/05 09:13:29;;;;;;;1.48;0.70;;;24.70;64.00;;;;;;5065469;28;20102;-80
2022/09/05 09:16:09;;;;;;;1.38;0.70;;;24.90;63.60;;;;;;5054267;28;20040;-81
2022/09/05 09:18:49;;;;;;;2.08;0.85;;;25.00;63.10;;;;;;5064192;28;20041;-81
2022/09/05 09:21:24;;;;;;;1.65;0.80;;;25.10;62.60;;;;;;5061978;28;20052;-80
2022/09/05 09:24:11;;;;;;;1.70;0.70;;;25.20;62.40;;;;;;5072739;28;20055;-80
2022/09/05 09:26:54;;;;;;;1.70;0.70;;;25.30;62.30;;;;;;5059053;28;20105;-81
2022/09/05 09:29:22;;;;;;;5.00;1.00;;;25.40;62.00;;;;;;5063194;28;20485;-81
2022/09/05 09:32:20;;;;;;;1.65;0.70;;;25.40;61.90;;;;;;5052664;28;20036;-80
2022/09/05 09:35:19;;;;;;;1.40;0.70;;;25.50;61.50;;;;;;5061865;28;20044;-80
2022/09/05 09:38:05;;;;;;;1.85;0.68;;;25.50;61.50;;;;;;5004557;28;20114;-81
2022/09/05 09:41:02;;;;;;;1.30;0.73;;;25.60;61.10;;;;;;5063642;28;20113;-82
2022/09/05 09:43:56;;;;;;;1.58;0.40;;;25.70;60.90;;;;;;5056963;28;20052;-81
2022/09/05 09:46:36;;;;;;;0.68;0.47;;;25.80;60.50;;;;;;5060622;28;20037;-81
2022/09/05 09:49:23;;;;;;;1.25;0.65;;;25.90;60.40;;;;;;5059628;28;20047;-81
2022/09/05 09:52:12;;;;;;;0.68;0.30;;;25.90;60.00;;;;;;5054351;28;20164;-81
2022/09/05 09:55:09;;;;;;;0.93;0.40;;;26.00;59.60;;;;;;5054535;28;20052;-81
2022/09/05 09:58:02;;;;;;;0.93;0.40;;;26.10;59.10;;;;;;5084774;28;20036;-81
2022/09/05 10:00:59;;;;;;;0.88;0.35;;;26.20;58.70;;;;;;5058477;28;20044;-81
2022/09/05 10:03:41;;;;;;;0.93;0.35;;;26.30;58.30;;;;;;5063960;28;20053;-81
2022/09/05 10:06:48;;;;;;;0.57;0.20;;;26.40;57.90;;;;;;5063433;28;20041;-81
2022/09/05 10:10:01;;;;;;;0.90;0.30;;;26.60;57.40;;;;;;5062312;28;20040;-81
2022/09/05 10:13:02;;;;;;;1.02;0.30;;;26.90;56.60;;;;;;5068747;28;20039;-83
2022/09/05 10:15:56;;;;;;;1.05;0.30;;;26.90;55.90;;;;;;5074335;28;20098;-82
2022/09/05 10:18:39;;;;;;;0.70;0.20;;;26.90;55.70;;;;;;5057135;28;20050;-83
2022/09/05 10:21:34;;;;;;;0.50;0.30;;;27.00;55.30;;;;;;5058046;28;20560;-83
2022/09/05 10:24:32;;;;;;;0.32;0.20;;;27.20;54.90;;;;;;5068248;28;20084;-83
2022/09/05 10:27:27;;;;;;;0.30;0.17;;;27.50;54.20;;;;;;5059954;28;20187;-83
2022/09/05 10:30:05;;;;;;;0.63;0.25;;;27.70;53.70;;;;;;5062575;28;20549;-83
2022/09/05 10:33:04;;;;;;;0.40;0.30;;;27.80;53.20;;;;;;5057911;28;20044;-82
2022/09/05 10:36:05;;;;;;;1.13;0.30;;;28.40;52.30;;;;;;5047648;28;20048;-83
2022/09/05 10:39:14;;;;;;;0.88;0.20;;;29.10;51.10;;;;;;5043204;28;20064;-82
2022/09/05 10:42:03;;;;;;;0.68;0.30;;;29.60;50.10;;;;;;5053831;28;20110;-83
2022/09/05 10:44:30;;;;;;;0.38;0.20;;;29.70;49.60;;;;;;5056124;28;20109;-83
2022/09/05 10:47:13;;;;;;;1.02;0.30;;;29.10;49.80;;;;;;5062687;28;20048;-82
2022/09/05 10:49:48;;;;;;;1.55;0.30;;;28.60;50.10;;;;;;5066266;28;20062;-83
2022/09/05 10:52:56;;;;;;;0.25;0.10;;;28.30;50.50;;;;;;5060937;28;20052;-82
2022/09/05 10:55:34;;;;;;;0.35;0.20;;;28.20;50.30;;;;;;5049122;28;20053;-83
2022/09/05 10:58:04;;;;;;;0.30;0.20;;;28.50;50.00;;;;;;5055430;28;20041;-82
2022/09/05 11:00:59;;;;;;;0.47;0.30;;;28.50;49.90;;;;;;5079618;28;20075;-82
2022/09/05 11:04:12;;;;;;;0.77;0.20;;;28.50;49.70;;;;;;5056175;28;20072;-82
2022/09/05 11:06:50;;;;;;;0.52;0.20;;;28.40;49.60;;;;;;5046072;28;20048;-82
2022/09/05 11:09:28;;;;;;;0.43;0.20;;;28.20;49.70;;;;;;5045171;28;20044;-83
2022/09/05 11:12:05;;;;;;;0.60;0.30;;;28.10;49.60;;;;;;5058403;28;20763;-83
2022/09/05 11:14:54;;;;;;;0.47;0.20;;;28.10;49.10;;;;;;5055624;28;20045;-83
2022/09/05 11:17:44;;;;;;;0.73;0.40;;;28.10;48.70;;;;;;5059245;28;20450;-83
2022/09/05 11:20:49;;;;;;;0.95;0.20;;;28.10;48.30;;;;;;5067882;28;20032;-83
2022/09/05 11:23:36;;;;;;;0.57;0.20;;;28.10;48.20;;;;;;5055283;28;20825;-83
2022/09/05 11:26:13;;;;;;;0.13;0.13;;;28.30;48.00;;;;;;5059302;28;20048;-83
2022/09/05 11:28:59;;;;;;;1.35;0.32;;;28.60;47.70;;;;;;5071219;28;20106;-83
2022/09/05 11:31:41;;;;;;;0.20;0.10;;;29.20;46.90;;;;;;5053362;28;20086;-83
2022/09/05 11:34:31;;;;;;;0.43;0.20;;;30.30;45.70;;;;;;5054990;28;20044;-81
2022/09/05 11:37:45;;;;;;;0.50;0.20;;;31.10;44.30;;;;;;5060268;28;20151;-81
2022/09/05 11:41:04;;;;;;;0.55;0.28;;;31.90;43.50;;;;;;5044751;28;20508;-80
2022/09/05 11:44:21;;;;;;;0.68;0.28;;;32.10;43.10;;;;;;5049479;28;20044;-81
2022/09/05 11:47:40;;;;;;;0.65;0.30;;;32.30;42.80;;;;;;5059570;28;20489;-81
2022/09/05 11:50:29;;;;;;;0.32;0.20;;;32.10;42.80;;;;;;4999116;28;20476;-80
2022/09/05 11:53:09;;;;;;;0.98;0.35;;;31.70;43.30;;;;;;5063352;28;20040;-81
2022/09/05 11:55:48;;;;;;;1.02;0.30;;;31.20;43.40;;;;;;5061178;28;20067;-80
2022/09/05 11:58:27;;;;;;;0.60;0.25;;;30.80;43.90;;;;;;5047996;28;20078;-81
2022/09/05 12:01:26;;;;;;;0.52;0.20;;;30.40;44.40;;;;;;5065743;28;20044;-81
2022/09/05 12:04:24;;;;;;;0.80;0.40;;;30.00;44.70;;;;;;5038950;28;20530;-81
2022/09/05 12:07:10;;;;;;;0.98;0.38;;;29.70;44.40;;;;;;5056185;28;20036;-81
2022/09/05 12:10:05;;;;;;;0.50;0.20;;;29.50;43.90;;;;;;5053832;28;20048;-81
2022/09/05 12:12:42;;;;;;;0.55;0.20;;;29.30;44.40;;;;;;5078466;28;20042;-81
2022/09/05 12:15:22;;;;;;;0.60;0.30;;;29.20;45.20;;;;;;5063813;28;20098;-81
2022/09/05 12:18:27;;;;;;;0.82;0.40;;;29.10;44.60;;;;;;5056425;28;20090;-87
2022/09/05 12:21:07;;;;;;;0.50;0.30;;;28.90;44.30;;;;;;5056721;28;20054;-87
2022/09/05 12:24:14;;;;;;;1.73;0.30;;;28.80;44.30;;;;;;5082612;28;20043;-84
2022/09/05 12:27:16;;;;;;;0.60;0.22;;;28.80;45.10;;;;;;5068760;28;20090;-81
2022/09/05 12:30:12;;;;;;;0.77;0.20;;;28.60;44.60;;;;;;5063984;28;20080;-80
2022/09/05 12:32:53;;;;;;;0.77;0.20;;;28.60;44.60;;;;;;5062274;28;20056;-81
2022/09/05 12:36:12;;;;;;;1.90;0.20;;;28.70;44.30;;;;;;5075830;28;20090;-81
2022/09/05 12:39:13;;;;;;;0.82;0.40;;;28.70;43.70;;;;;;5062172;28;20044;-83
2022/09/05 12:42:20;;;;;;;0.50;0.30;;;28.70;42.80;;;;;;5048714;28;20045;-86
2022/09/05 12:45:25;;;;;;;0.77;0.30;;;28.70;42.80;;;;;;5052152;28;20135;-86
2022/09/05 12:48:35;;;;;;;0.70;0.30;;;28.60;42.90;;;;;;5049964;28;20140;-84
2022/09/05 12:51:20;;;;;;;0.75;0.30;;;28.60;42.90;;;;;;5044637;28;20400;-80
2022/09/05 12:54:21;;;;;;;0.50;0.30;;;28.70;42.60;;;;;;5064934;28;20064;-80
2022/09/05 12:56:59;;;;;;;;;;;28.70;42.30;;;;;;5070426;28;20151;-82
2022/09/05 12:59:48;;;;;;;0.38;0.20;;;28.70;42.60;;;;;;5061626;28;20011;-81
2022/09/05 13:02:38;;;;;;;0.30;0.20;;;28.60;42.60;;;;;;5068505;28;20106;-80
2022/09/05 13:05:44;;;;;;;0.80;0.22;;;28.70;42.60;;;;;;5066339;28;20090;-80
2022/09/05 13:08:20;;;;;;;0.55;0.22;;;28.70;42.50;;;;;;5079617;28;20500;-80
2022/09/05 13:10:56;;;;;;;0.40;0.13;;;28.70;42.40;;;;;;5070338;28;20094;-80
2022/09/05 13:14:35;;;;;;;1.08;0.10;;;28.70;42.30;;;;;;5087026;28;20044;-81
2022/09/05 13:17:38;;;;;;;0.50;0.20;;;28.90;42.30;;;;;;5051954;28;20157;-82
2022/09/05 13:20:35;;;;;;;0.75;0.20;;;28.90;42.20;;;;;;5059873;28;20432;-82
2022/09/05 13:23:21;;;;;;;0.60;0.20;;;29.10;41.90;;;;;;5071997;28;20127;-81
2022/09/05 13:26:04;;;;;;;0.17;0.15;;;29.10;41.80;;;;;;5060136;28;20051;-79
2022/09/05 13:28:46;;;;;;;1.35;0.20;;;29.20;41.50;;;;;;5060752;28;20058;-80
2022/09/05 13:31:14;;;;;;;0.68;0.20;;;29.30;41.50;;;;;;5061237;28;20072;-81
2022/09/05 13:34:10;;;;;;;0.30;0.20;;;29.40;41.10;;;;;;5044387;28;20489;-81
2022/09/05 13:37:02;;;;;;;0.90;0.40;;;29.50;40.90;;;;;;5063062;28;20116;-80
2022/09/05 13:39:51;;;;;;;0.50;0.30;;;29.60;40.30;;;;;;5058969;28;20523;-82
2022/09/05 13:42:22;;;;;;;0.57;0.30;;;29.80;40.50;;;;;;5085333;28;20478;-81
2022/09/05 13:44:54;;;;;;;2.22;0.30;;;29.80;40.50;;;;;;5065985;28;20516;-81
2022/09/05 13:47:55;;;;;;;0.40;0.28;;;29.90;40.50;;;;;;5074213;28;20044;-81
2022/09/05 13:50:36;;;;;;;0.40;0.25;;;29.90;40.40;;;;;;5049744;28;20431;-81
2022/09/05 13:53:33;;;;;;;0.52;0.20;;;29.90;40.50;;;;;;5073228;28;20122;-81
2022/09/05 13:56:22;;;;;;;0.32;0.20;;;29.90;40.40;;;;;;5066522;28;20044;-82
2022/09/05 13:58:55;;;;;;;0.65;0.28;;;30.00;40.30;;;;;;5057343;28;20059;-82
2022/09/05 14:01:29;;;;;;;0.82;0.30;;;30.00;40.30;;;;;;5048603;28;20085;-83
2022/09/05 14:04:04;;;;;;;0.28;0.20;;;30.00;40.10;;;;;;5053844;28;20407;-83
2022/09/05 14:07:00;;;;;;;0.43;0.20;;;30.00;39.60;;;;;;5048437;28;20101;-81
2022/09/05 14:10:09;;;;;;;0.50;0.30;;;30.10;39.60;;;;;;5072473;28;20119;-82
2022/09/05 14:12:48;;;;;;;0.40;0.20;;;30.10;39.70;;;;;;5045581;28;20506;-84
2022/09/05 14:15:40;;;;;;;0.55;0.20;;;30.20;39.80;;;;;;5048442;28;20066;-83
2022/09/05 14:18:16;;;;;;;0.70;0.25;;;30.20;39.50;;;;;;5052289;28;20050;-82
2022/09/05 14:23:47;;;;;;;0.43;0.30;;;30.00;39.70;;;;;;5065780;28;20408;-82
2022/09/05 14:26:22;;;;;;;0.30;0.20;;;30.00;39.80;;;;;;5068037;28;20144;-83
2022/09/05 14:29:05;;;;;;;0.75;0.20;;;30.00;39.80;;;;;;5054893;28;20052;-82
2022/09/05 14:31:50;;;;;;;0.25;0.20;;;29.90;39.80;;;;;;5068603;28;20032;-82
2022/09/05 14:35:04;;;;;;;0.50;0.20;;;29.90;39.80;;;;;;5040860;28;20049;-83
2022/09/05 14:38:00;;;;;;;0.22;0.20;;;29.90;39.80;;;;;;5063437;28;20044;-81
2022/09/05 14:41:01;;;;;;;0.60;0.20;;;29.90;39.60;;;;;;5043489;28;20067;-88
2022/09/05 14:44:00;;;;;;;0.30;0.20;;;30.00;39.50;;;;;;5069006;28;20057;-88
2022/09/05 14:47:02;;;;;;;0.40;0.10;;;30.00;39.30;;;;;;5047623;28;20063;-84
2022/09/05 14:49:39;;;;;;;0.32;0.13;;;30.10;39.30;;;;;;5056170;28;20098;-83
2022/09/05 14:52:18;;;;;;;0.32;0.10;;;30.10;39.20;;;;;;5044314;28;20044;-88